Terminal Aerodrome Forecast
Issued by NWS

Current Version | Previous Version | Text Only | Print | Product List | Glossary On
Versions: 1 2 3 4 5 6 7 8 9 10 11 12 13 14 15 16 17 18 19 20 21 22 23 24 25 26 27 28 29 30 31
000
FTUS45 KSLC 270056 AAA
TAFSGU
TAF AMD
KSGU 270056Z 2701/2724 06018G28KT P6SM SKC
     FM270700 04009KT P6SM SKC
     FM271100 VRB04KT P6SM SKC
     FM272000 29005KT P6SM SKC
      AMD LTD TO CLD VIS AND WIND=

USA.gov is the U.S. government's official web portal to all federal, state and local government web resources and services.